GLWPR LFRS-LFDY
Flight info
| Callsign | GLWPR |
|---|---|
| Flight time | N/A |
| Altitude | 2500 |
| Route | VFR |
| Aircraft | BDOG/L-SDLO/C |
Departure
| Time | 2026-04-29 20:29 |
|---|---|
| Airport | Nantes Atlantique Airport (LFRS) |
Arrival
| Time | N/A |
|---|---|
| Airport | Bordeaux Yvrac Airfield (LFDY) |
| Time | Latitude | Longitude | Altitude | Speed | Heading |
|---|---|---|---|---|---|
| 2026-04-29 20:23 | 47.16098 | -1.60129 | 96 ft | 0 kts | 93° |
| 2026-04-29 20:27 | 47.16103 | -1.60126 | 96 ft | 5 kts | 348° |
| 2026-04-29 20:27 | 47.16141 | -1.60113 | 97 ft | 12 kts | 22° |
| 2026-04-29 20:27 | 47.16220 | -1.60072 | 99 ft | 2 kts | 277° |
| 2026-04-29 20:27 | 47.16278 | -1.60076 | 99 ft | 18 kts | 29° |
| 2026-04-29 20:28 | 47.16370 | -1.60069 | 98 ft | 12 kts | 351° |
| 2026-04-29 20:28 | 47.16428 | -1.60129 | 98 ft | 10 kts | 281° |
| 2026-04-29 20:28 | 47.16409 | -1.60219 | 100 ft | 11 kts | 223° |
| 2026-04-29 20:28 | 47.16188 | -1.60398 | 97 ft | 62 kts | 211° |
| 2026-04-29 20:29 | 47.15709 | -1.60775 | 191 ft | 89 kts | 205° |
| 2026-04-29 20:29 | 47.15120 | -1.61228 | 344 ft | 105 kts | 208° |
| 2026-04-29 20:29 | 47.14436 | -1.61729 | 555 ft | 111 kts | 207° |
| 2026-04-29 20:29 | 47.13795 | -1.62242 | 930 ft | 101 kts | 208° |
| 2026-04-29 20:30 | 47.13208 | -1.62823 | 1248 ft | 97 kts | 210° |
| 2026-04-29 20:30 | 47.12708 | -1.63391 | 1440 ft | 105 kts | 213° |
| 2026-04-29 20:30 | 47.12135 | -1.64084 | 1739 ft | 111 kts | 210° |
| 2026-04-29 20:30 | 47.11486 | -1.64807 | 1973 ft | 121 kts | 211° |
| 2026-04-29 20:31 | 47.10835 | -1.65634 | 2227 ft | 126 kts | 212° |
| 2026-04-29 20:31 | 47.10172 | -1.66511 | 2478 ft | 129 kts | 213° |
| 2026-04-29 20:31 | 47.09516 | -1.67388 | 2672 ft | 128 kts | 214° |
| 2026-04-29 20:31 | 47.08862 | -1.68275 | 2809 ft | 128 kts | 214° |
| 2026-04-29 20:32 | 47.08211 | -1.69164 | 2934 ft | 128 kts | 213° |
| 2026-04-29 20:32 | 47.07557 | -1.70071 | 3072 ft | 130 kts | 214° |
| 2026-04-29 20:32 | 47.06905 | -1.70981 | 3188 ft | 129 kts | 214° |
| 2026-04-29 20:32 | 47.06477 | -1.71585 | 3267 ft | 129 kts | 214° |
| 2026-04-29 20:33 | 47.05618 | -1.72804 | 3475 ft | 128 kts | 214° |
| 2026-04-29 20:33 | 47.04888 | -1.73344 | 3582 ft | 113 kts | 170° |
| 2026-04-29 20:33 | 47.04302 | -1.72706 | 3708 ft | 107 kts | 131° |
| 2026-04-29 20:33 | 47.03628 | -1.72241 | 3841 ft | 110 kts | 158° |
| 2026-04-29 20:34 | 47.02924 | -1.71966 | 3972 ft | 99 kts | 160° |
| 2026-04-29 20:34 | 47.02294 | -1.71752 | 4070 ft | 87 kts | 161° |
| 2026-04-29 20:34 | 47.01714 | -1.71574 | 4196 ft | 84 kts | 161° |
| 2026-04-29 20:34 | 47.01149 | -1.71414 | 4219 ft | 83 kts | 162° |
| 2026-04-29 20:35 | 47.00588 | -1.71263 | 4265 ft | 80 kts | 162° |
| 2026-04-29 20:35 | 47.00043 | -1.71122 | 4327 ft | 80 kts | 162° |
| 2026-04-29 20:35 | 46.99491 | -1.70973 | 4406 ft | 85 kts | 162° |
| 2026-04-29 20:35 | 46.98892 | -1.70801 | 4548 ft | 91 kts | 161° |
| 2026-04-29 20:36 | 46.98255 | -1.70615 | 4668 ft | 95 kts | 161° |
| 2026-04-29 20:36 | 46.97600 | -1.70423 | 4799 ft | 97 kts | 161° |
| 2026-04-29 20:36 | 46.96939 | -1.70223 | 4927 ft | 98 kts | 161° |
| 2026-04-29 20:36 | 46.96277 | -1.70013 | 5046 ft | 97 kts | 161° |
| 2026-04-29 20:37 | 46.95607 | -1.69781 | 5205 ft | 101 kts | 162° |
| 2026-04-29 20:37 | 46.94927 | -1.69511 | 5312 ft | 101 kts | 160° |
| 2026-04-29 20:37 | 46.94278 | -1.69118 | 5450 ft | 102 kts | 154° |
| 2026-04-29 20:37 | 46.93639 | -1.68659 | 5563 ft | 102 kts | 152° |
| 2026-04-29 20:38 | 46.93012 | -1.68183 | 5683 ft | 101 kts | 152° |
| 2026-04-29 20:38 | 46.92395 | -1.67701 | 5823 ft | 101 kts | 152° |
| 2026-04-29 20:38 | 46.91775 | -1.67205 | 5933 ft | 103 kts | 151° |
| 2026-04-29 20:38 | 46.91120 | -1.66674 | 5824 ft | 108 kts | 150° |
| 2026-04-29 20:39 | 46.90477 | -1.66153 | 5706 ft | 107 kts | 150° |
| 2026-04-29 20:39 | 46.89818 | -1.65623 | 5573 ft | 107 kts | 151° |
| 2026-04-29 20:39 | 46.89191 | -1.65151 | 5558 ft | 99 kts | 155° |
| 2026-04-29 20:39 | 46.88559 | -1.64813 | 5562 ft | 95 kts | 159° |
| 2026-04-29 20:40 | 46.87932 | -1.64527 | 5559 ft | 93 kts | 160° |
| 2026-04-29 20:40 | 46.87310 | -1.64262 | 5561 ft | 93 kts | 160° |
| 2026-04-29 20:40 | 46.86698 | -1.64010 | 5535 ft | 89 kts | 161° |
| 2026-04-29 20:40 | 46.86109 | -1.63772 | 5531 ft | 86 kts | 161° |
| 2026-04-29 20:41 | 46.85529 | -1.63538 | 5551 ft | 87 kts | 161° |
| 2026-04-29 20:41 | 46.84945 | -1.63304 | 5561 ft | 87 kts | 161° |
| 2026-04-29 20:41 | 46.84354 | -1.63065 | 5567 ft | 89 kts | 161° |
| 2026-04-29 20:41 | 46.83759 | -1.62829 | 5545 ft | 89 kts | 161° |
| 2026-04-29 20:42 | 46.83159 | -1.62604 | 5553 ft | 89 kts | 160° |
| 2026-04-29 20:42 | 46.82558 | -1.62383 | 5551 ft | 89 kts | 161° |
| 2026-04-29 20:42 | 46.81954 | -1.62164 | 5547 ft | 89 kts | 161° |
| 2026-04-29 20:42 | 46.81362 | -1.61955 | 5547 ft | 89 kts | 161° |
| 2026-04-29 20:43 | 46.80760 | -1.61745 | 5554 ft | 89 kts | 161° |
| 2026-04-29 20:43 | 46.80153 | -1.61530 | 5543 ft | 89 kts | 161° |
| 2026-04-29 20:43 | 46.79557 | -1.61319 | 5541 ft | 88 kts | 161° |
| 2026-04-29 20:43 | 46.78964 | -1.61108 | 5549 ft | 88 kts | 161° |
| 2026-04-29 20:44 | 46.78372 | -1.60900 | 5543 ft | 87 kts | 161° |
| 2026-04-29 20:44 | 46.77787 | -1.60697 | 5530 ft | 85 kts | 161° |
| 2026-04-29 20:44 | 46.77216 | -1.60505 | 5519 ft | 83 kts | 161° |
| 2026-04-29 20:44 | 46.76658 | -1.60321 | 5532 ft | 82 kts | 161° |
| 2026-04-29 20:45 | 46.76105 | -1.60134 | 5538 ft | 83 kts | 161° |
| 2026-04-29 20:45 | 46.75545 | -1.59939 | 5535 ft | 83 kts | 160° |
| 2026-04-29 20:45 | 46.74988 | -1.59740 | 5535 ft | 82 kts | 160° |
| 2026-04-29 20:45 | 46.74429 | -1.59541 | 5546 ft | 83 kts | 160° |
| 2026-04-29 20:46 | 46.73859 | -1.59341 | 5563 ft | 85 kts | 161° |
| 2026-04-29 20:46 | 46.73280 | -1.59138 | 5563 ft | 86 kts | 161° |
| 2026-04-29 20:46 | 46.72697 | -1.58934 | 5568 ft | 87 kts | 161° |
| 2026-04-29 20:46 | 46.72111 | -1.58726 | 5561 ft | 86 kts | 160° |
| 2026-04-29 20:47 | 46.71527 | -1.58514 | 5557 ft | 87 kts | 161° |
| 2026-04-29 20:47 | 46.70943 | -1.58299 | 5568 ft | 87 kts | 161° |
| 2026-04-29 20:47 | 46.70352 | -1.58087 | 5564 ft | 87 kts | 161° |
| 2026-04-29 20:47 | 46.69961 | -1.57950 | 5570 ft | 88 kts | 161° |
| 2026-04-29 20:48 | 46.69176 | -1.57673 | 5564 ft | 87 kts | 161° |
| 2026-04-29 20:48 | 46.68580 | -1.57461 | 5578 ft | 89 kts | 161° |
| 2026-04-29 20:48 | 46.67980 | -1.57247 | 5562 ft | 88 kts | 161° |
| 2026-04-29 20:48 | 46.67382 | -1.57034 | 5566 ft | 88 kts | 161° |
| 2026-04-29 20:49 | 46.66787 | -1.56821 | 5550 ft | 87 kts | 161° |
| 2026-04-29 20:49 | 46.66203 | -1.56616 | 5550 ft | 86 kts | 161° |
| 2026-04-29 20:49 | 46.65818 | -1.56483 | 5555 ft | 86 kts | 161° |
| 2026-04-29 20:49 | 46.65233 | -1.56279 | 5558 ft | 87 kts | 161° |
| 2026-04-29 20:50 | 46.64649 | -1.56073 | 5548 ft | 86 kts | 161° |
| 2026-04-29 20:50 | 46.64065 | -1.55863 | 5567 ft | 87 kts | 161° |
| 2026-04-29 20:50 | 46.63277 | -1.55577 | 5556 ft | 88 kts | 161° |
| 2026-04-29 20:50 | 46.62878 | -1.55432 | 5556 ft | 87 kts | 161° |
| 2026-04-29 20:51 | 46.62286 | -1.55214 | 5563 ft | 88 kts | 161° |
| 2026-04-29 20:51 | 46.61696 | -1.54997 | 5551 ft | 87 kts | 161° |
| 2026-04-29 20:51 | 46.61109 | -1.54784 | 5555 ft | 87 kts | 161° |
| 2026-04-29 20:51 | 46.60523 | -1.54573 | 5555 ft | 87 kts | 161° |
| 2026-04-29 20:52 | 46.59930 | -1.54356 | 5565 ft | 88 kts | 160° |
| 2026-04-29 20:52 | 46.59342 | -1.54140 | 5574 ft | 89 kts | 161° |
| 2026-04-29 20:52 | 46.58740 | -1.53915 | 5579 ft | 90 kts | 160° |
| 2026-04-29 20:52 | 46.58131 | -1.53688 | 5585 ft | 91 kts | 160° |
| 2026-04-29 20:53 | 46.57510 | -1.53459 | 5586 ft | 93 kts | 161° |
| 2026-04-29 20:53 | 46.56881 | -1.53231 | 5572 ft | 92 kts | 160° |
| 2026-04-29 20:53 | 46.56261 | -1.53011 | 5562 ft | 91 kts | 161° |
| 2026-04-29 20:53 | 46.55644 | -1.52786 | 5578 ft | 92 kts | 161° |
| 2026-04-29 20:54 | 46.54409 | -1.52265 | 5566 ft | 92 kts | 161° |
| 2026-04-29 20:54 | 46.53799 | -1.52001 | 5555 ft | 90 kts | 161° |
| 2026-04-29 20:54 | 46.53206 | -1.51742 | 5560 ft | 90 kts | 161° |
| 2026-04-29 20:55 | 46.52606 | -1.51480 | 5573 ft | 91 kts | 161° |
| 2026-04-29 20:55 | 46.52000 | -1.51214 | 5577 ft | 92 kts | 161° |
| 2026-04-29 20:55 | 46.51387 | -1.50942 | 5578 ft | 93 kts | 160° |
| 2026-04-29 20:55 | 46.50768 | -1.50670 | 5567 ft | 93 kts | 161° |
| 2026-04-29 20:56 | 46.50153 | -1.50401 | 5565 ft | 92 kts | 161° |
| 2026-04-29 20:56 | 46.49541 | -1.50136 | 5560 ft | 92 kts | 161° |
| 2026-04-29 20:56 | 46.48931 | -1.49872 | 5552 ft | 91 kts | 161° |
| 2026-04-29 20:56 | 46.48330 | -1.49612 | 5545 ft | 90 kts | 161° |
| 2026-04-29 20:57 | 46.47733 | -1.49354 | 5553 ft | 89 kts | 161° |
| 2026-04-29 20:57 | 46.47136 | -1.49094 | 5559 ft | 90 kts | 161° |
| 2026-04-29 20:57 | 46.46541 | -1.48834 | 5564 ft | 91 kts | 161° |
| 2026-04-29 20:57 | 46.45927 | -1.48567 | 5571 ft | 91 kts | 161° |
| 2026-04-29 20:58 | 46.45321 | -1.48303 | 5576 ft | 93 kts | 161° |
| 2026-04-29 20:58 | 46.44693 | -1.48031 | 5587 ft | 95 kts | 161° |
| 2026-04-29 20:58 | 46.44053 | -1.47753 | 5589 ft | 97 kts | 161° |
| 2026-04-29 20:58 | 46.43407 | -1.47471 | 5586 ft | 97 kts | 161° |
| 2026-04-29 20:59 | 46.42760 | -1.47189 | 5577 ft | 97 kts | 161° |
| 2026-04-29 20:59 | 46.42124 | -1.46914 | 5575 ft | 94 kts | 161° |
| 2026-04-29 20:59 | 46.41495 | -1.46644 | 5570 ft | 94 kts | 161° |
| 2026-04-29 20:59 | 46.40873 | -1.46375 | 5568 ft | 93 kts | 161° |
| 2026-04-29 21:00 | 46.40254 | -1.46106 | 5558 ft | 93 kts | 161° |
| 2026-04-29 21:00 | 46.39634 | -1.45835 | 5560 ft | 93 kts | 161° |
| 2026-04-29 21:00 | 46.39014 | -1.45564 | 5569 ft | 94 kts | 161° |
| 2026-04-29 21:00 | 46.38390 | -1.45292 | 5562 ft | 94 kts | 161° |
| 2026-04-29 21:01 | 46.37766 | -1.45021 | 5563 ft | 94 kts | 161° |
| 2026-04-29 21:01 | 46.37139 | -1.44745 | 5562 ft | 94 kts | 161° |
| 2026-04-29 21:01 | 46.36511 | -1.44469 | 5560 ft | 94 kts | 161° |
| 2026-04-29 21:01 | 46.35887 | -1.44193 | 5560 ft | 94 kts | 162° |
| 2026-04-29 21:02 | 46.35274 | -1.43905 | 5558 ft | 94 kts | 161° |
| 2026-04-29 21:02 | 46.34655 | -1.43611 | 5568 ft | 94 kts | 161° |
| 2026-04-29 21:02 | 46.34032 | -1.43314 | 5560 ft | 94 kts | 161° |
| 2026-04-29 21:02 | 46.33410 | -1.43014 | 5546 ft | 93 kts | 161° |
| 2026-04-29 21:03 | 46.32798 | -1.42720 | 5542 ft | 92 kts | 161° |
| 2026-04-29 21:03 | 46.32196 | -1.42431 | 5538 ft | 91 kts | 161° |
| 2026-04-29 21:03 | 46.31600 | -1.42146 | 5534 ft | 90 kts | 161° |
| 2026-04-29 21:03 | 46.31009 | -1.41863 | 5532 ft | 89 kts | 161° |
| 2026-04-29 21:04 | 46.30423 | -1.41582 | 5531 ft | 88 kts | 161° |
| 2026-04-29 21:04 | 46.29841 | -1.41302 | 5530 ft | 88 kts | 161° |
| 2026-04-29 21:04 | 46.29261 | -1.41021 | 5531 ft | 88 kts | 161° |
| 2026-04-29 21:04 | 46.28690 | -1.40744 | 5531 ft | 87 kts | 161° |
| 2026-04-29 21:05 | 46.28114 | -1.40468 | 5529 ft | 87 kts | 161° |
| 2026-04-29 21:05 | 46.27538 | -1.40192 | 5529 ft | 87 kts | 161° |
| 2026-04-29 21:05 | 46.26962 | -1.39917 | 5531 ft | 87 kts | 161° |
| 2026-04-29 21:05 | 46.26384 | -1.39641 | 5533 ft | 87 kts | 161° |
| 2026-04-29 21:06 | 46.25804 | -1.39366 | 5535 ft | 88 kts | 161° |
| 2026-04-29 21:06 | 46.25222 | -1.39089 | 5537 ft | 88 kts | 161° |
| 2026-04-29 21:06 | 46.24639 | -1.38812 | 5536 ft | 88 kts | 161° |
| 2026-04-29 21:06 | 46.24056 | -1.38535 | 5534 ft | 88 kts | 161° |
| 2026-04-29 21:07 | 46.23473 | -1.38257 | 5536 ft | 88 kts | 161° |
| 2026-04-29 21:07 | 46.22889 | -1.37981 | 5536 ft | 88 kts | 161° |
| 2026-04-29 21:07 | 46.22304 | -1.37704 | 5536 ft | 88 kts | 161° |
| 2026-04-29 21:07 | 46.21719 | -1.37429 | 5537 ft | 88 kts | 161° |
| 2026-04-29 21:08 | 46.21142 | -1.37157 | 5536 ft | 88 kts | 161° |
| 2026-04-29 21:08 | 46.20559 | -1.36882 | 5542 ft | 88 kts | 161° |
| 2026-04-29 21:08 | 46.19972 | -1.36606 | 5555 ft | 90 kts | 161° |
| 2026-04-29 21:08 | 46.19376 | -1.36326 | 5549 ft | 90 kts | 161° |
| 2026-04-29 21:09 | 46.18779 | -1.36046 | 5546 ft | 90 kts | 161° |
| 2026-04-29 21:09 | 46.18182 | -1.35768 | 5542 ft | 90 kts | 161° |
| 2026-04-29 21:09 | 46.17587 | -1.35487 | 5559 ft | 91 kts | 161° |
| 2026-04-29 21:09 | 46.16987 | -1.35200 | 5544 ft | 91 kts | 161° |
| 2026-04-29 21:10 | 46.16390 | -1.34914 | 5537 ft | 90 kts | 161° |
| 2026-04-29 21:10 | 46.15790 | -1.34626 | 5558 ft | 92 kts | 161° |
| 2026-04-29 21:10 | 46.15180 | -1.34325 | 5563 ft | 94 kts | 161° |
| 2026-04-29 21:10 | 46.14563 | -1.34022 | 5554 ft | 94 kts | 161° |
| 2026-04-29 21:11 | 46.13948 | -1.33721 | 5544 ft | 93 kts | 161° |
| 2026-04-29 21:11 | 46.13337 | -1.33422 | 5544 ft | 92 kts | 161° |
| 2026-04-29 21:11 | 46.12731 | -1.33124 | 5538 ft | 92 kts | 161° |
| 2026-04-29 21:11 | 46.12130 | -1.32826 | 5534 ft | 91 kts | 161° |
| 2026-04-29 21:12 | 46.11534 | -1.32527 | 5534 ft | 90 kts | 161° |
| 2026-04-29 21:12 | 46.10941 | -1.32230 | 5534 ft | 90 kts | 161° |
| 2026-04-29 21:12 | 46.10359 | -1.31938 | 5537 ft | 90 kts | 161° |
| 2026-04-29 21:12 | 46.09758 | -1.31639 | 5538 ft | 90 kts | 161° |
| 2026-04-29 21:13 | 46.09173 | -1.31348 | 5538 ft | 90 kts | 161° |
| 2026-04-29 21:13 | 46.08580 | -1.31052 | 5536 ft | 90 kts | 161° |
| 2026-04-29 21:13 | 46.07961 | -1.30744 | 5428 ft | 98 kts | 161° |
| 2026-04-29 21:13 | 46.07343 | -1.30267 | 5310 ft | 103 kts | 149° |
| 2026-04-29 21:14 | 46.06734 | -1.29681 | 5193 ft | 107 kts | 147° |
| 2026-04-29 21:14 | 46.06121 | -1.29058 | 5072 ft | 109 kts | 146° |
| 2026-04-29 21:14 | 46.05503 | -1.28417 | 4949 ft | 110 kts | 146° |
| 2026-04-29 21:14 | 46.04927 | -1.27811 | 4810 ft | 96 kts | 146° |
| 2026-04-29 21:15 | 46.04409 | -1.27261 | 4664 ft | 89 kts | 146° |
| 2026-04-29 21:15 | 46.03906 | -1.26778 | 4523 ft | 85 kts | 152° |
| 2026-04-29 21:15 | 46.03378 | -1.26438 | 4386 ft | 82 kts | 158° |
| 2026-04-29 21:15 | 46.02857 | -1.26161 | 4247 ft | 81 kts | 160° |
| 2026-04-29 21:16 | 46.02335 | -1.25873 | 4105 ft | 80 kts | 158° |
| 2026-04-29 21:16 | 46.01832 | -1.25564 | 3983 ft | 77 kts | 154° |
| 2026-04-29 21:16 | 46.01387 | -1.25124 | 3831 ft | 79 kts | 139° |
| 2026-04-29 21:16 | 46.01029 | -1.24555 | 3731 ft | 75 kts | 133° |
| 2026-04-29 21:17 | 46.00573 | -1.24217 | 3529 ft | 82 kts | 173° |
| 2026-04-29 21:17 | 46.00012 | -1.24137 | 3395 ft | 80 kts | 170° |
| 2026-04-29 21:17 | 45.99456 | -1.24069 | 3272 ft | 80 kts | 171° |
| 2026-04-29 21:17 | 45.98902 | -1.24002 | 3151 ft | 79 kts | 171° |
| 2026-04-29 21:18 | 45.98349 | -1.23934 | 3026 ft | 79 kts | 171° |
| 2026-04-29 21:18 | 45.97843 | -1.23720 | 2853 ft | 79 kts | 130° |
| 2026-04-29 21:18 | 45.97703 | -1.22939 | 2745 ft | 82 kts | 104° |
| 2026-04-29 21:18 | 45.97634 | -1.22128 | 2624 ft | 81 kts | 102° |
| 2026-04-29 21:19 | 45.97585 | -1.21317 | 2500 ft | 82 kts | 101° |
| 2026-04-29 21:19 | 45.97545 | -1.20520 | 2370 ft | 80 kts | 100° |
| 2026-04-29 21:19 | 45.97511 | -1.19722 | 2241 ft | 80 kts | 100° |
| 2026-04-29 21:19 | 45.97484 | -1.18919 | 2112 ft | 79 kts | 100° |
| 2026-04-29 21:20 | 45.97464 | -1.18130 | 1976 ft | 81 kts | 100° |
| 2026-04-29 21:20 | 45.97565 | -1.17322 | 1823 ft | 95 kts | 59° |
| 2026-04-29 21:20 | 45.98146 | -1.16783 | 1698 ft | 100 kts | 36° |
| 2026-04-29 21:20 | 45.98769 | -1.16332 | 1573 ft | 100 kts | 33° |
| 2026-04-29 21:21 | 45.99462 | -1.16227 | 1409 ft | 108 kts | 342° |
| 2026-04-29 21:21 | 45.99951 | -1.16971 | 1243 ft | 104 kts | 280° |
| 2026-04-29 21:21 | 46.00080 | -1.17979 | 1121 ft | 103 kts | 281° |
| 2026-04-29 21:21 | 46.00282 | -1.18967 | 1006 ft | 103 kts | 276° |
| 2026-04-29 21:22 | 46.00353 | -1.19986 | 881 ft | 101 kts | 267° |
| 2026-04-29 21:22 | 46.00316 | -1.21001 | 781 ft | 102 kts | 263° |
| 2026-04-29 21:22 | 46.00245 | -1.22024 | 659 ft | 104 kts | 261° |
| 2026-04-29 21:22 | 46.00160 | -1.23050 | 532 ft | 105 kts | 261° |
| 2026-04-29 21:23 | 45.99985 | -1.24094 | 546 ft | 99 kts | 222° |
| 2026-04-29 21:23 | 45.99455 | -1.23968 | 613 ft | 93 kts | 121° |
| 2026-04-29 21:23 | 45.99431 | -1.23088 | 636 ft | 99 kts | 82° |
| 2026-04-29 21:23 | 45.99600 | -1.22090 | 590 ft | 104 kts | 75° |
| 2026-04-29 21:24 | 45.99839 | -1.21127 | 666 ft | 98 kts | 73° |
| 2026-04-29 21:24 | 46.00011 | -1.20242 | 820 ft | 87 kts | 89° |
| 2026-04-29 21:24 | 45.99843 | -1.19493 | 948 ft | 80 kts | 133° |
| 2026-04-29 21:24 | 45.99300 | -1.19216 | 1006 ft | 89 kts | 164° |
| 2026-04-29 21:25 | 45.98656 | -1.19106 | 1172 ft | 96 kts | 169° |
| 2026-04-29 21:25 | 45.97980 | -1.18979 | 1324 ft | 103 kts | 168° |
| 2026-04-29 21:25 | 45.97260 | -1.18820 | 1485 ft | 105 kts | 165° |
| 2026-04-29 21:25 | 45.96545 | -1.18613 | 1673 ft | 104 kts | 164° |
| 2026-04-29 21:26 | 45.95836 | -1.18389 | 1817 ft | 105 kts | 163° |
| 2026-04-29 21:26 | 45.95122 | -1.18143 | 1943 ft | 106 kts | 163° |
| 2026-04-29 21:26 | 45.94400 | -1.17887 | 2066 ft | 107 kts | 163° |
| 2026-04-29 21:26 | 45.93674 | -1.17623 | 2190 ft | 108 kts | 163° |
| 2026-04-29 21:27 | 45.93190 | -1.17446 | 2281 ft | 108 kts | 163° |
| 2026-04-29 21:27 | 45.92210 | -1.17086 | 2440 ft | 109 kts | 163° |
| 2026-04-29 21:27 | 45.91479 | -1.16805 | 2560 ft | 108 kts | 163° |
| 2026-04-29 21:27 | 45.90755 | -1.16521 | 2681 ft | 108 kts | 162° |
| 2026-04-29 21:28 | 45.90041 | -1.16241 | 2795 ft | 107 kts | 162° |
| 2026-04-29 21:28 | 45.89324 | -1.15960 | 2913 ft | 107 kts | 162° |
| 2026-04-29 21:28 | 45.88609 | -1.15678 | 3045 ft | 106 kts | 162° |
| 2026-04-29 21:28 | 45.87894 | -1.15401 | 3165 ft | 106 kts | 162° |
| 2026-04-29 21:29 | 45.87178 | -1.15130 | 3285 ft | 106 kts | 162° |
| 2026-04-29 21:29 | 45.86467 | -1.14857 | 3402 ft | 105 kts | 162° |
| 2026-04-29 21:29 | 45.85757 | -1.14584 | 3525 ft | 105 kts | 162° |
| 2026-04-29 21:29 | 45.85049 | -1.14308 | 3651 ft | 106 kts | 162° |
| 2026-04-29 21:30 | 45.84340 | -1.14023 | 3780 ft | 106 kts | 162° |
| 2026-04-29 21:30 | 45.83626 | -1.13732 | 3916 ft | 108 kts | 162° |
| 2026-04-29 21:30 | 45.82896 | -1.13431 | 3974 ft | 114 kts | 161° |
| 2026-04-29 21:30 | 45.82127 | -1.13108 | 3856 ft | 115 kts | 161° |
| 2026-04-29 21:31 | 45.81362 | -1.12787 | 3743 ft | 115 kts | 161° |
| 2026-04-29 21:31 | 45.80604 | -1.12468 | 3615 ft | 115 kts | 161° |
| 2026-04-29 21:31 | 45.79837 | -1.12143 | 3491 ft | 115 kts | 161° |
| 2026-04-29 21:31 | 45.79078 | -1.11823 | 3432 ft | 109 kts | 161° |
| 2026-04-29 21:32 | 45.78381 | -1.11537 | 3460 ft | 102 kts | 161° |
| 2026-04-29 21:32 | 45.77710 | -1.11262 | 3457 ft | 100 kts | 161° |
| 2026-04-29 21:32 | 45.77048 | -1.10991 | 3456 ft | 98 kts | 161° |
| 2026-04-29 21:32 | 45.76394 | -1.10732 | 3462 ft | 97 kts | 161° |
| 2026-04-29 21:33 | 45.75738 | -1.10481 | 3467 ft | 98 kts | 161° |
| 2026-04-29 21:33 | 45.75075 | -1.10227 | 3469 ft | 98 kts | 161° |
| 2026-04-29 21:33 | 45.74427 | -1.09977 | 3457 ft | 97 kts | 161° |
| 2026-04-29 21:33 | 45.73771 | -1.09721 | 3472 ft | 98 kts | 161° |
| 2026-04-29 21:34 | 45.73104 | -1.09456 | 3491 ft | 100 kts | 161° |
| 2026-04-29 21:34 | 45.72426 | -1.09185 | 3490 ft | 102 kts | 161° |
| 2026-04-29 21:34 | 45.71752 | -1.08915 | 3469 ft | 100 kts | 161° |
| 2026-04-29 21:34 | 45.71083 | -1.08647 | 3479 ft | 100 kts | 161° |
| 2026-04-29 21:35 | 45.70640 | -1.08472 | 3478 ft | 99 kts | 161° |
| 2026-04-29 21:35 | 45.69980 | -1.08219 | 3485 ft | 98 kts | 161° |
| 2026-04-29 21:35 | 45.69117 | -1.07888 | 3475 ft | 96 kts | 161° |
| 2026-04-29 21:35 | 45.68479 | -1.07637 | 3467 ft | 95 kts | 160° |
| 2026-04-29 21:36 | 45.67837 | -1.07386 | 3470 ft | 96 kts | 161° |
| 2026-04-29 21:36 | 45.67399 | -1.07216 | 3476 ft | 97 kts | 161° |
| 2026-04-29 21:36 | 45.66762 | -1.06964 | 3462 ft | 96 kts | 161° |
| 2026-04-29 21:36 | 45.66120 | -1.06707 | 3470 ft | 96 kts | 161° |
| 2026-04-29 21:37 | 45.65472 | -1.06447 | 3490 ft | 98 kts | 161° |
| 2026-04-29 21:37 | 45.64811 | -1.06184 | 3491 ft | 99 kts | 161° |
| 2026-04-29 21:37 | 45.64166 | -1.05847 | 3491 ft | 99 kts | 154° |
| 2026-04-29 21:37 | 45.63561 | -1.05387 | 3482 ft | 98 kts | 148° |
| 2026-04-29 21:38 | 45.62984 | -1.04882 | 3477 ft | 96 kts | 147° |
| 2026-04-29 21:38 | 45.62423 | -1.04364 | 3482 ft | 96 kts | 146° |
| 2026-04-29 21:38 | 45.61859 | -1.03837 | 3493 ft | 97 kts | 146° |
| 2026-04-29 21:38 | 45.61291 | -1.03305 | 3481 ft | 97 kts | 146° |
| 2026-04-29 21:39 | 45.60730 | -1.02780 | 3473 ft | 96 kts | 146° |
| 2026-04-29 21:39 | 45.60176 | -1.02262 | 3470 ft | 95 kts | 146° |
| 2026-04-29 21:39 | 45.59627 | -1.01750 | 3465 ft | 94 kts | 146° |
| 2026-04-29 21:39 | 45.59081 | -1.01240 | 3471 ft | 94 kts | 146° |
| 2026-04-29 21:40 | 45.58534 | -1.00730 | 3468 ft | 94 kts | 146° |
| 2026-04-29 21:40 | 45.57994 | -1.00227 | 3468 ft | 94 kts | 146° |
| 2026-04-29 21:40 | 45.57447 | -0.99717 | 3470 ft | 94 kts | 146° |
| 2026-04-29 21:40 | 45.56897 | -0.99205 | 3470 ft | 95 kts | 146° |
| 2026-04-29 21:41 | 45.56345 | -0.98689 | 3471 ft | 95 kts | 146° |
| 2026-04-29 21:41 | 45.55792 | -0.98173 | 3474 ft | 95 kts | 146° |
| 2026-04-29 21:41 | 45.55236 | -0.97654 | 3477 ft | 95 kts | 146° |
| 2026-04-29 21:41 | 45.54685 | -0.97139 | 3475 ft | 96 kts | 146° |
| 2026-04-29 21:42 | 45.54128 | -0.96618 | 3473 ft | 96 kts | 146° |
| 2026-04-29 21:42 | 45.53572 | -0.96098 | 3473 ft | 95 kts | 146° |
| 2026-04-29 21:42 | 45.53016 | -0.95578 | 3472 ft | 95 kts | 146° |
| 2026-04-29 21:42 | 45.52463 | -0.95063 | 3472 ft | 95 kts | 146° |
| 2026-04-29 21:43 | 45.51910 | -0.94548 | 3467 ft | 95 kts | 146° |
| 2026-04-29 21:43 | 45.51357 | -0.94035 | 3469 ft | 95 kts | 146° |
| 2026-04-29 21:43 | 45.50804 | -0.93522 | 3471 ft | 95 kts | 146° |
| 2026-04-29 21:43 | 45.50250 | -0.93010 | 3474 ft | 95 kts | 146° |
| 2026-04-29 21:44 | 45.49693 | -0.92495 | 3476 ft | 95 kts | 146° |
| 2026-04-29 21:44 | 45.49137 | -0.91978 | 3473 ft | 95 kts | 146° |
| 2026-04-29 21:44 | 45.48581 | -0.91458 | 3473 ft | 95 kts | 146° |
| 2026-04-29 21:44 | 45.48028 | -0.90938 | 3472 ft | 95 kts | 146° |
| 2026-04-29 21:45 | 45.47475 | -0.90420 | 3474 ft | 95 kts | 146° |
| 2026-04-29 21:45 | 45.46924 | -0.89904 | 3478 ft | 95 kts | 146° |
| 2026-04-29 21:45 | 45.46372 | -0.89392 | 3475 ft | 95 kts | 146° |
| 2026-04-29 21:45 | 45.45827 | -0.88888 | 3476 ft | 95 kts | 146° |
| 2026-04-29 21:46 | 45.45267 | -0.88370 | 3473 ft | 95 kts | 146° |
| 2026-04-29 21:46 | 45.44720 | -0.87865 | 3473 ft | 95 kts | 146° |
| 2026-04-29 21:46 | 45.44165 | -0.87352 | 3473 ft | 95 kts | 146° |
| 2026-04-29 21:46 | 45.43610 | -0.86839 | 3474 ft | 95 kts | 146° |
| 2026-04-29 21:47 | 45.43054 | -0.86324 | 3477 ft | 95 kts | 146° |
| 2026-04-29 21:47 | 45.42500 | -0.85810 | 3475 ft | 95 kts | 146° |
| 2026-04-29 21:47 | 45.41944 | -0.85298 | 3480 ft | 95 kts | 146° |
| 2026-04-29 21:47 | 45.41389 | -0.84788 | 3481 ft | 95 kts | 146° |
| 2026-04-29 21:48 | 45.40831 | -0.84276 | 3482 ft | 95 kts | 146° |
| 2026-04-29 21:48 | 45.40272 | -0.83762 | 3480 ft | 96 kts | 146° |
| 2026-04-29 21:48 | 45.39713 | -0.83250 | 3480 ft | 96 kts | 146° |
| 2026-04-29 21:48 | 45.39151 | -0.82735 | 3481 ft | 96 kts | 146° |
| 2026-04-29 21:49 | 45.38597 | -0.82227 | 3478 ft | 96 kts | 146° |
| 2026-04-29 21:49 | 45.38034 | -0.81709 | 3482 ft | 96 kts | 146° |
| 2026-04-29 21:49 | 45.37475 | -0.81187 | 3473 ft | 96 kts | 146° |
| 2026-04-29 21:49 | 45.36916 | -0.80665 | 3471 ft | 96 kts | 146° |
| 2026-04-29 21:50 | 45.36359 | -0.80145 | 3474 ft | 96 kts | 146° |
| 2026-04-29 21:50 | 45.35804 | -0.79627 | 3473 ft | 96 kts | 146° |
| 2026-04-29 21:50 | 45.35247 | -0.79106 | 3478 ft | 96 kts | 146° |
| 2026-04-29 21:50 | 45.34688 | -0.78584 | 3479 ft | 96 kts | 146° |
| 2026-04-29 21:51 | 45.34126 | -0.78062 | 3476 ft | 97 kts | 146° |
| 2026-04-29 21:51 | 45.33564 | -0.77537 | 3476 ft | 97 kts | 146° |
| 2026-04-29 21:51 | 45.32430 | -0.76496 | 3481 ft | 97 kts | 146° |
| 2026-04-29 21:52 | 45.31861 | -0.75982 | 3473 ft | 97 kts | 146° |
| 2026-04-29 21:52 | 45.31296 | -0.75480 | 3475 ft | 97 kts | 146° |
| 2026-04-29 21:52 | 45.30724 | -0.74974 | 3472 ft | 97 kts | 146° |
| 2026-04-29 21:52 | 45.30151 | -0.74470 | 3466 ft | 97 kts | 146° |
| 2026-04-29 21:53 | 45.29566 | -0.74003 | 3470 ft | 96 kts | 152° |
| 2026-04-29 21:53 | 45.28951 | -0.73624 | 3469 ft | 96 kts | 154° |
| 2026-04-29 21:53 | 45.28329 | -0.73274 | 3470 ft | 96 kts | 155° |
| 2026-04-29 21:53 | 45.27702 | -0.72935 | 3468 ft | 96 kts | 155° |
| 2026-04-29 21:54 | 45.27073 | -0.72602 | 3470 ft | 96 kts | 156° |
| 2026-04-29 21:54 | 45.26444 | -0.72272 | 3472 ft | 96 kts | 156° |
| 2026-04-29 21:54 | 45.25814 | -0.71942 | 3471 ft | 96 kts | 156° |
| 2026-04-29 21:54 | 45.25183 | -0.71611 | 3478 ft | 97 kts | 156° |
| 2026-04-29 21:55 | 45.24557 | -0.71283 | 3472 ft | 97 kts | 156° |
| 2026-04-29 21:55 | 45.23921 | -0.70949 | 3471 ft | 97 kts | 156° |
| 2026-04-29 21:55 | 45.23286 | -0.70615 | 3470 ft | 97 kts | 156° |
| 2026-04-29 21:55 | 45.22650 | -0.70279 | 3470 ft | 97 kts | 156° |
| 2026-04-29 21:56 | 45.22014 | -0.69944 | 3469 ft | 97 kts | 156° |
| 2026-04-29 21:56 | 45.21376 | -0.69608 | 3469 ft | 98 kts | 156° |
| 2026-04-29 21:56 | 45.20740 | -0.69272 | 3467 ft | 97 kts | 156° |
| 2026-04-29 21:56 | 45.20107 | -0.68934 | 3471 ft | 97 kts | 156° |
| 2026-04-29 21:57 | 45.19476 | -0.68595 | 3479 ft | 97 kts | 156° |
| 2026-04-29 21:57 | 45.18847 | -0.68257 | 3489 ft | 99 kts | 158° |
| 2026-04-29 21:57 | 45.18200 | -0.67883 | 3490 ft | 101 kts | 156° |
| 2026-04-29 21:57 | 45.17545 | -0.67499 | 3485 ft | 102 kts | 156° |
| 2026-04-29 21:58 | 45.16889 | -0.67113 | 3477 ft | 102 kts | 156° |
| 2026-04-29 21:58 | 45.16231 | -0.66731 | 3479 ft | 102 kts | 156° |
| 2026-04-29 21:58 | 45.15570 | -0.66347 | 3488 ft | 103 kts | 156° |
| 2026-04-29 21:58 | 45.14903 | -0.65960 | 3480 ft | 103 kts | 156° |
| 2026-04-29 21:59 | 45.14244 | -0.65576 | 3471 ft | 101 kts | 156° |
| 2026-04-29 21:59 | 45.13595 | -0.65195 | 3475 ft | 101 kts | 156° |
| 2026-04-29 21:59 | 45.12946 | -0.64814 | 3480 ft | 101 kts | 156° |
| 2026-04-29 21:59 | 45.12296 | -0.64432 | 3480 ft | 101 kts | 156° |
| 2026-04-29 22:00 | 45.11639 | -0.64048 | 3482 ft | 102 kts | 156° |
| 2026-04-29 22:00 | 45.10980 | -0.63663 | 3486 ft | 103 kts | 156° |
| 2026-04-29 22:00 | 45.10328 | -0.63278 | 3481 ft | 103 kts | 155° |
| 2026-04-29 22:00 | 45.09664 | -0.62888 | 3500 ft | 104 kts | 156° |
| 2026-04-29 22:01 | 45.08992 | -0.62493 | 3497 ft | 105 kts | 156° |
| 2026-04-29 22:01 | 45.08316 | -0.62094 | 3503 ft | 106 kts | 156° |
| 2026-04-29 22:01 | 45.07635 | -0.61693 | 3505 ft | 106 kts | 156° |
| 2026-04-29 22:01 | 45.06958 | -0.61294 | 3490 ft | 105 kts | 156° |
| 2026-04-29 22:02 | 45.06285 | -0.60894 | 3488 ft | 105 kts | 156° |
| 2026-04-29 22:02 | 45.05617 | -0.60497 | 3482 ft | 103 kts | 156° |
| 2026-04-29 22:02 | 45.04960 | -0.60108 | 3477 ft | 102 kts | 156° |
| 2026-04-29 22:02 | 45.04309 | -0.59727 | 3485 ft | 103 kts | 156° |
| 2026-04-29 22:03 | 45.03650 | -0.59340 | 3485 ft | 103 kts | 156° |
| 2026-04-29 22:03 | 45.02987 | -0.58951 | 3482 ft | 103 kts | 156° |
| 2026-04-29 22:03 | 45.02334 | -0.58573 | 3486 ft | 100 kts | 155° |
| 2026-04-29 22:03 | 45.01687 | -0.58206 | 3473 ft | 99 kts | 155° |
| 2026-04-29 22:04 | 45.01043 | -0.57834 | 3477 ft | 100 kts | 155° |
| 2026-04-29 22:04 | 45.00395 | -0.57460 | 3475 ft | 101 kts | 156° |
| 2026-04-29 22:04 | 44.99744 | -0.57082 | 3485 ft | 102 kts | 156° |
| 2026-04-29 22:04 | 44.99080 | -0.56693 | 3537 ft | 104 kts | 156° |
| 2026-04-29 22:05 | 44.98478 | -0.56167 | 3522 ft | 101 kts | 137° |
| 2026-04-29 22:05 | 44.97976 | -0.55490 | 3547 ft | 101 kts | 135° |
| 2026-04-29 22:05 | 44.96985 | -0.54054 | 3576 ft | 102 kts | 134° |
| 2026-04-29 22:06 | 44.96493 | -0.53326 | 3577 ft | 103 kts | 134° |
| 2026-04-29 22:06 | 44.96000 | -0.52590 | 3573 ft | 103 kts | 134° |
| 2026-04-29 22:06 | 44.95504 | -0.51854 | 3581 ft | 104 kts | 135° |
| 2026-04-29 22:06 | 44.94981 | -0.51209 | 3681 ft | 96 kts | 143° |
| 2026-04-29 22:07 | 44.94380 | -0.50621 | 3578 ft | 112 kts | 146° |
| 2026-04-29 22:07 | 44.93733 | -0.50059 | 3614 ft | 109 kts | 150° |
| 2026-04-29 22:07 | 44.93079 | -0.49587 | 3782 ft | 97 kts | 153° |
| 2026-04-29 22:07 | 44.92418 | -0.49110 | 3589 ft | 114 kts | 152° |
| 2026-04-29 22:08 | 44.91682 | -0.48635 | 3423 ft | 117 kts | 160° |
| 2026-04-29 22:08 | 44.90935 | -0.48281 | 3391 ft | 114 kts | 160° |
| 2026-04-29 22:08 | 44.90118 | -0.47976 | 3185 ft | 127 kts | 165° |
| 2026-04-29 22:08 | 44.89253 | -0.47791 | 3045 ft | 126 kts | 170° |
| 2026-04-29 22:09 | 44.88345 | -0.47802 | 2763 ft | 135 kts | 191° |
| 2026-04-29 22:09 | 44.87599 | -0.48573 | 2680 ft | 134 kts | 227° |
| 2026-04-29 22:09 | 44.87275 | -0.49764 | 2716 ft | 131 kts | 253° |
| 2026-04-29 22:09 | 44.87365 | -0.51057 | 2589 ft | 141 kts | 296° |
| 2026-04-29 22:10 | 44.87903 | -0.52031 | 2718 ft | 125 kts | 314° |
| 2026-04-29 22:10 | 44.88162 | -0.53156 | 2660 ft | 120 kts | 243° |
| 2026-04-29 22:10 | 44.87483 | -0.53566 | 2542 ft | 111 kts | 174° |
| 2026-04-29 22:10 | 44.86702 | -0.54067 | 1991 ft | 147 kts | 210° |
| 2026-04-29 22:11 | 44.86045 | -0.55036 | 2051 ft | 134 kts | 223° |
| 2026-04-29 22:11 | 44.85438 | -0.55921 | 2125 ft | 114 kts | 206° |
| 2026-04-29 22:11 | 44.84789 | -0.56076 | 2270 ft | 94 kts | 162° |
| 2026-04-29 22:11 | 44.84184 | -0.55756 | 2293 ft | 93 kts | 151° |
| 2026-04-29 22:12 | 44.83623 | -0.55290 | 2284 ft | 94 kts | 137° |
| 2026-04-29 22:12 | 44.83039 | -0.54767 | 2211 ft | 100 kts | 145° |
| 2026-04-29 22:12 | 44.82399 | -0.54328 | 2161 ft | 105 kts | 153° |
| 2026-04-29 22:12 | 44.81697 | -0.53929 | 2133 ft | 107 kts | 154° |
| 2026-04-29 22:13 | 44.80928 | -0.53816 | 2056 ft | 116 kts | 186° |
| 2026-04-29 22:13 | 44.80180 | -0.54099 | 2083 ft | 110 kts | 192° |
| 2026-04-29 22:13 | 44.79481 | -0.54508 | 2117 ft | 110 kts | 200° |
| 2026-04-29 22:13 | 44.78819 | -0.55006 | 2246 ft | 108 kts | 200° |
| 2026-04-29 22:14 | 44.78116 | -0.55486 | 2171 ft | 114 kts | 189° |
| 2026-04-29 22:14 | 44.77405 | -0.55339 | 2198 ft | 103 kts | 156° |
| 2026-04-29 22:14 | 44.76700 | -0.54903 | 2089 ft | 111 kts | 149° |
| 2026-04-29 22:14 | 44.76012 | -0.54466 | 2060 ft | 108 kts | 152° |
| 2026-04-29 22:15 | 44.75311 | -0.54104 | 2049 ft | 103 kts | 157° |
| 2026-04-29 22:15 | 44.74621 | -0.53774 | 2068 ft | 110 kts | 155° |
| 2026-04-29 22:15 | 44.73894 | -0.53359 | 1973 ft | 113 kts | 153° |
| 2026-04-29 22:15 | 44.73151 | -0.52982 | 1914 ft | 112 kts | 162° |
| 2026-04-29 22:16 | 44.72457 | -0.52472 | 1671 ft | 122 kts | 143° |
| 2026-04-29 22:16 | 44.71798 | -0.51690 | 1497 ft | 125 kts | 136° |
| 2026-04-29 22:16 | 44.71063 | -0.51148 | 1487 ft | 123 kts | 166° |
| 2026-04-29 22:16 | 44.70229 | -0.51439 | 1390 ft | 130 kts | 207° |
| 2026-04-29 22:17 | 44.69807 | -0.52045 | 1323 ft | 136 kts | 230° |
| 2026-04-29 22:17 | 44.69634 | -0.53756 | 1205 ft | 140 kts | 292° |
| 2026-04-29 22:17 | 44.70249 | -0.54648 | 1293 ft | 113 kts | 323° |
| 2026-04-29 22:17 | 44.70869 | -0.55278 | 1181 ft | 105 kts | 329° |
| 2026-04-29 22:18 | 44.71367 | -0.55870 | 1136 ft | 88 kts | 310° |
| 2026-04-29 22:18 | 44.71714 | -0.56581 | 1057 ft | 89 kts | 302° |
| 2026-04-29 22:18 | 44.72064 | -0.57286 | 940 ft | 92 kts | 303° |
| 2026-04-29 22:18 | 44.71924 | -0.58030 | 669 ft | 86 kts | 202° |
| 2026-04-29 22:19 | 44.71429 | -0.58397 | 536 ft | 77 kts | 206° |
| 2026-04-29 22:19 | 44.71000 | -0.58774 | 415 ft | 70 kts | 207° |
| 2026-04-29 22:19 | 44.70615 | -0.59100 | 331 ft | 64 kts | 207° |
| 2026-04-29 22:19 | 44.70219 | -0.59450 | 205 ft | 64 kts | 208° |
| 2026-04-29 22:20 | 44.69936 | -0.59691 | 188 ft | 35 kts | 216° |
| 2026-04-29 22:20 | 44.69761 | -0.59851 | 198 ft | 24 kts | 211° |
| 2026-04-29 22:20 | 44.69677 | -0.59928 | 192 ft | 0 kts | 213° |
| 2026-04-29 22:21 | 44.69675 | -0.59930 | 201 ft | 4 kts | 213° |
| 2026-04-29 22:21 | 44.69634 | -0.59974 | 193 ft | 4 kts | 260° |
| 2026-04-29 22:21 | 44.69634 | -0.60000 | 193 ft | 4 kts | 287° |
| 2026-04-29 22:21 | 44.69674 | -0.60036 | 192 ft | 12 kts | 332° |
| 2026-04-29 22:22 | 44.69751 | -0.60063 | 203 ft | 10 kts | 17° |
| 2026-04-29 22:22 | 44.69823 | -0.60027 | 191 ft | 12 kts | 18° |
| 2026-04-29 22:22 | 44.69868 | -0.60026 | 197 ft | 4 kts | 341° |
| 2026-04-29 22:22 | 44.69903 | -0.60031 | 190 ft | 5 kts | 348° |
| 2026-04-29 22:23 | 44.69935 | -0.60022 | 192 ft | 6 kts | 19° |
| 2026-04-29 22:23 | 44.69971 | -0.60003 | 195 ft | 1 kts | 35° |
| 2026-04-29 22:23 | 44.69974 | -0.59987 | 191 ft | 2 kts | 109° |
| 2026-04-29 22:23 | 44.69974 | -0.59984 | 189 ft | 0 kts | 102° |